createdAt,value
2023-01-29T00:00:01.972Z,1020.8142916149004
2023-01-29T00:15:01.613Z,1020.7398638528264
2023-01-29T00:30:02.287Z,1020.7981787331117
2023-01-29T00:45:01.945Z,1020.7222368064057
2023-01-29T01:00:01.656Z,1020.3880524499618
2023-01-29T01:15:02.279Z,1020.2312454844389
2023-01-29T01:30:01.931Z,1020.3601591076548
2023-01-29T01:45:01.587Z,1020.1024592712731
2023-01-29T02:00:02.232Z,1020.4246738137714
2023-01-29T02:15:01.923Z,1020.4731203607798
2023-01-29T02:30:01.659Z,1020.4846171165606
2023-01-29T02:45:02.340Z,1020.435680972489
2023-01-29T03:00:01.991Z,1020.5965029062178
2023-01-29T03:15:01.686Z,1020.3340331856975
2023-01-29T03:30:01.376Z,1020.2116137716683
2023-01-29T03:45:02.011Z,1020.0752460089159
2023-01-29T04:00:01.621Z,1019.6760290044914
2023-01-29T04:15:02.239Z,1019.566322013311
2023-01-29T04:30:01.960Z,1019.455286216152
2023-01-29T04:45:01.611Z,1019.2122102980273
2023-01-29T05:00:02.261Z,1019.1033399667365
2023-01-29T05:15:01.912Z,1019.2178829993121
2023-01-29T05:30:01.669Z,1019.2596952882438
2023-01-29T05:45:01.447Z,1019.354511071142
2023-01-29T06:00:02.188Z,1019.2633634380556
2023-01-29T06:15:01.902Z,1019.3781994338992
2023-01-29T06:30:01.557Z,1019.3393084629874
2023-01-29T06:45:01.353Z,1019.3093576966863
2023-01-29T07:00:02.090Z,1019.2000312908353
2023-01-29T07:15:01.867Z,1019.2788739927516
2023-01-29T07:30:01.722Z,1019.1281298308651
2023-01-29T07:45:02.342Z,1019.0051255366493
2023-01-29T08:00:01.944Z,1018.8611879856244
2023-01-29T08:15:01.588Z,1018.416001864393
2023-01-29T08:30:02.244Z,1018.5076682775859
2023-01-29T08:45:01.875Z,1018.3852853468316
2023-01-29T09:00:01.504Z,1018.2464126916726
2023-01-29T09:15:02.154Z,1018.5430779967269
2023-01-29T09:30:01.807Z,1018.5508663752512
2023-01-29T09:45:01.438Z,1018.3676025097641
2023-01-29T10:00:02.086Z,1018.0895503403061
2023-01-29T10:15:01.715Z,1018.0389866875904
2023-01-29T10:30:01.375Z,1017.7057486874677
2023-01-29T10:45:02.026Z,1017.4456751957852
2023-01-29T11:00:01.636Z,1017.194653247965
2023-01-29T11:15:01.404Z,1017.1373920203996
2023-01-29T11:30:02.268Z,1016.9922434843656
2023-01-29T11:45:01.898Z,1016.8842399725529
2023-01-29T12:00:02.534Z,1016.6079824009305
2023-01-29T12:15:02.197Z,1016.3251009486647
2023-01-29T12:30:01.854Z,1016.1083462316452
2023-01-29T12:45:02.500Z,1015.7660088837553
2023-01-29T13:00:02.153Z,1015.5365304193697
2023-01-29T13:15:01.803Z,1015.3144558594721
2023-01-29T13:30:02.472Z,1015.2074826285984
2023-01-29T13:45:02.111Z,1015.0777690501112
2023-01-29T14:00:01.717Z,1014.9368966737976
2023-01-29T14:15:02.368Z,1014.7910241841186
2023-01-29T14:30:02.035Z,1014.7315623361584
2023-01-29T14:45:01.660Z,1014.553897189489
2023-01-29T15:00:02.259Z,1014.4728631870903
2023-01-29T15:15:01.963Z,1014.4828721589289
2023-01-29T15:30:01.709Z,1014.3999312924938
2023-01-29T15:45:02.396Z,1013.9924190762939
2023-01-29T16:00:02.054Z,1013.5966832719604
2023-01-29T16:15:01.696Z,1013.4883129188772
2023-01-29T16:30:02.333Z,1013.4363784046737
2023-01-29T16:45:01.995Z,1013.3412821151261
2023-01-29T17:00:01.660Z,1013.2212313694439
2023-01-29T17:15:02.333Z,1013.178280149434
2023-01-29T17:30:02.042Z,1013.1553826712707
2023-01-29T17:45:01.724Z,1012.6484120601375
2023-01-29T18:00:01.366Z,1012.4492310375151
2023-01-29T18:15:02.048Z,1012.2284717438737
2023-01-29T18:30:01.938Z,1012.0069199089552
2023-01-29T18:45:02.176Z,1011.7856783765538
2023-01-29T19:00:01.810Z,1011.5152198371176
2023-01-29T19:15:01.660Z,1011.139512440729
2023-01-29T19:30:02.551Z,1011.36161260634
2023-01-29T19:45:02.197Z,1010.8620497818666
2023-01-29T20:00:01.808Z,1010.3961187939035
2023-01-29T20:15:02.448Z,1010.4067512948117
2023-01-29T20:30:02.120Z,1010.1970780765095
2023-01-29T20:45:01.787Z,1010.2710249206906
2023-01-29T21:00:02.444Z,1009.8804248431638
2023-01-29T21:15:02.088Z,1009.8437242098915
2023-01-29T21:30:01.778Z,1009.9505311256077
2023-01-29T21:45:02.432Z,1009.8197223726733
2023-01-29T22:00:02.072Z,1009.8290387830635
2023-01-29T22:15:01.763Z,1009.6538283474115
2023-01-29T22:30:01.437Z,1009.2878666756376
2023-01-29T22:45:02.080Z,1008.3698030349173
2023-01-29T23:00:01.702Z,1007.9064118830642
2023-01-29T23:15:02.365Z,1007.9777633755677
2023-01-29T23:30:02.091Z,1007.2878569199343
2023-01-29T23:45:01.900Z,1006.8575663081746
